sensor_id;sensor_type;location;lat;lon;timestamp;temperature;humidity
44431;DHT22;30135;47.866;-4.222;2023-07-31T00:00:59;19.40;96.70
44431;DHT22;30135;47.866;-4.222;2023-07-31T00:03:25;19.40;96.80
44431;DHT22;30135;47.866;-4.222;2023-07-31T00:05:51;19.40;96.80
44431;DHT22;30135;47.866;-4.222;2023-07-31T00:08:17;19.40;96.80
44431;DHT22;30135;47.866;-4.222;2023-07-31T00:10:43;19.40;96.90
44431;DHT22;30135;47.866;-4.222;2023-07-31T00:13:09;19.40;96.90
44431;DHT22;30135;47.866;-4.222;2023-07-31T00:15:35;19.40;97.00
44431;DHT22;30135;47.866;-4.222;2023-07-31T00:18:01;19.40;97.00
44431;DHT22;30135;47.866;-4.222;2023-07-31T00:20:34;19.40;97.00
44431;DHT22;30135;47.866;-4.222;2023-07-31T00:23:00;19.40;97.10
44431;DHT22;30135;47.866;-4.222;2023-07-31T00:25:26;19.40;97.10
44431;DHT22;30135;47.866;-4.222;2023-07-31T00:27:52;19.40;97.20
44431;DHT22;30135;47.866;-4.222;2023-07-31T00:30:17;19.40;97.20
44431;DHT22;30135;47.866;-4.222;2023-07-31T00:32:43;19.40;97.20
44431;DHT22;30135;47.866;-4.222;2023-07-31T00:35:09;19.40;97.30
44431;DHT22;30135;47.866;-4.222;2023-07-31T00:37:35;19.40;97.30
44431;DHT22;30135;47.866;-4.222;2023-07-31T00:40:01;19.40;97.30
44431;DHT22;30135;47.866;-4.222;2023-07-31T00:42:29;19.40;97.40
44431;DHT22;30135;47.866;-4.222;2023-07-31T00:44:57;19.40;97.40
44431;DHT22;30135;47.866;-4.222;2023-07-31T00:47:23;19.40;97.40
44431;DHT22;30135;47.866;-4.222;2023-07-31T00:49:49;19.40;97.50
44431;DHT22;30135;47.866;-4.222;2023-07-31T00:52:16;19.40;97.50
44431;DHT22;30135;47.866;-4.222;2023-07-31T00:54:42;19.40;97.50
44431;DHT22;30135;47.866;-4.222;2023-07-31T00:57:08;19.40;97.50
44431;DHT22;30135;47.866;-4.222;2023-07-31T00:59:34;19.40;97.50
44431;DHT22;30135;47.866;-4.222;2023-07-31T01:02:01;19.40;97.90
44431;DHT22;30135;47.866;-4.222;2023-07-31T01:04:27;19.40;97.50
44431;DHT22;30135;47.866;-4.222;2023-07-31T01:07:05;19.40;97.50
44431;DHT22;30135;47.866;-4.222;2023-07-31T01:09:47;19.50;97.60
44431;DHT22;30135;47.866;-4.222;2023-07-31T01:12:31;19.50;97.60
44431;DHT22;30135;47.866;-4.222;2023-07-31T01:15:08;19.40;97.60
44431;DHT22;30135;47.866;-4.222;2023-07-31T01:17:39;19.50;97.60
44431;DHT22;30135;47.866;-4.222;2023-07-31T01:20:27;19.50;97.60
44431;DHT22;30135;47.866;-4.222;2023-07-31T01:26:05;19.50;97.70
44431;DHT22;30135;47.866;-4.222;2023-07-31T01:29:16;19.50;97.70
44431;DHT22;30135;47.866;-4.222;2023-07-31T01:31:48;19.50;97.80
44431;DHT22;30135;47.866;-4.222;2023-07-31T01:34:16;19.50;97.80
44431;DHT22;30135;47.866;-4.222;2023-07-31T01:36:43;19.50;97.80
44431;DHT22;30135;47.866;-4.222;2023-07-31T01:39:09;19.50;97.80
44431;DHT22;30135;47.866;-4.222;2023-07-31T01:41:35;19.50;97.90
44431;DHT22;30135;47.866;-4.222;2023-07-31T01:44:01;19.50;97.90
44431;DHT22;30135;47.866;-4.222;2023-07-31T01:46:27;19.50;97.90
44431;DHT22;30135;47.866;-4.222;2023-07-31T01:48:53;19.50;97.90
44431;DHT22;30135;47.866;-4.222;2023-07-31T01:51:19;19.50;97.90
44431;DHT22;30135;47.866;-4.222;2023-07-31T01:53:45;19.50;98.00
44431;DHT22;30135;47.866;-4.222;2023-07-31T01:56:11;19.50;98.00
44431;DHT22;30135;47.866;-4.222;2023-07-31T01:58:40;19.50;98.00
44431;DHT22;30135;47.866;-4.222;2023-07-31T02:01:06;19.50;98.00
44431;DHT22;30135;47.866;-4.222;2023-07-31T02:03:32;19.50;98.00
44431;DHT22;30135;47.866;-4.222;2023-07-31T02:05:58;19.50;98.10
44431;DHT22;30135;47.866;-4.222;2023-07-31T02:08:24;19.50;98.10
44431;DHT22;30135;47.866;-4.222;2023-07-31T02:10:51;19.50;98.10
44431;DHT22;30135;47.866;-4.222;2023-07-31T02:13:17;19.50;98.10
44431;DHT22;30135;47.866;-4.222;2023-07-31T02:15:43;19.50;98.10
44431;DHT22;30135;47.866;-4.222;2023-07-31T02:18:09;19.50;98.20
44431;DHT22;30135;47.866;-4.222;2023-07-31T02:20:35;19.50;98.20
44431;DHT22;30135;47.866;-4.222;2023-07-31T02:23:03;19.50;98.20
44431;DHT22;30135;47.866;-4.222;2023-07-31T02:25:29;19.50;98.30
44431;DHT22;30135;47.866;-4.222;2023-07-31T02:27:55;19.50;98.30
44431;DHT22;30135;47.866;-4.222;2023-07-31T02:30:21;19.50;98.40
44431;DHT22;30135;47.866;-4.222;2023-07-31T02:32:47;19.50;98.40
44431;DHT22;30135;47.866;-4.222;2023-07-31T02:35:13;19.50;98.40
44431;DHT22;30135;47.866;-4.222;2023-07-31T02:37:42;19.50;98.50
44431;DHT22;30135;47.866;-4.222;2023-07-31T02:40:08;19.50;98.50
44431;DHT22;30135;47.866;-4.222;2023-07-31T02:42:35;19.50;98.50
44431;DHT22;30135;47.866;-4.222;2023-07-31T02:45:01;19.50;98.60
44431;DHT22;30135;47.866;-4.222;2023-07-31T02:47:27;19.50;98.60
44431;DHT22;30135;47.866;-4.222;2023-07-31T02:49:53;19.60;98.60
44431;DHT22;30135;47.866;-4.222;2023-07-31T02:52:19;19.60;98.60
44431;DHT22;30135;47.866;-4.222;2023-07-31T02:54:45;19.50;98.60
44431;DHT22;30135;47.866;-4.222;2023-07-31T02:57:11;19.50;98.60
44431;DHT22;30135;47.866;-4.222;2023-07-31T02:59:37;19.50;98.70
44431;DHT22;30135;47.866;-4.222;2023-07-31T03:02:03;19.50;98.70
44431;DHT22;30135;47.866;-4.222;2023-07-31T03:04:29;19.50;98.70
44431;DHT22;30135;47.866;-4.222;2023-07-31T03:06:55;19.50;98.70
44431;DHT22;30135;47.866;-4.222;2023-07-31T03:09:21;19.50;98.70
44431;DHT22;30135;47.866;-4.222;2023-07-31T03:11:47;19.50;98.70
44431;DHT22;30135;47.866;-4.222;2023-07-31T03:14:13;19.50;98.70
44431;DHT22;30135;47.866;-4.222;2023-07-31T03:16:39;19.50;98.70
44431;DHT22;30135;47.866;-4.222;2023-07-31T03:19:05;19.50;98.80
44431;DHT22;30135;47.866;-4.222;2023-07-31T03:21:31;19.50;98.80
44431;DHT22;30135;47.866;-4.222;2023-07-31T03:23:57;19.50;98.80
44431;DHT22;30135;47.866;-4.222;2023-07-31T03:26:23;19.50;98.70
44431;DHT22;30135;47.866;-4.222;2023-07-31T03:28:49;19.60;98.80
44431;DHT22;30135;47.866;-4.222;2023-07-31T03:31:15;19.50;98.70
44431;DHT22;30135;47.866;-4.222;2023-07-31T03:33:41;19.50;98.70
44431;DHT22;30135;47.866;-4.222;2023-07-31T03:36:07;19.50;98.70
44431;DHT22;30135;47.866;-4.222;2023-07-31T03:38:35;19.60;98.70
44431;DHT22;30135;47.866;-4.222;2023-07-31T03:41:01;19.50;98.70
44431;DHT22;30135;47.866;-4.222;2023-07-31T03:43:27;19.60;98.70
44431;DHT22;30135;47.866;-4.222;2023-07-31T03:45:54;19.50;98.60
44431;DHT22;30135;47.866;-4.222;2023-07-31T03:48:20;19.50;98.60
44431;DHT22;30135;47.866;-4.222;2023-07-31T03:50:46;19.50;98.60
44431;DHT22;30135;47.866;-4.222;2023-07-31T03:53:12;19.50;98.60
44431;DHT22;30135;47.866;-4.222;2023-07-31T03:55:40;19.60;98.70
44431;DHT22;30135;47.866;-4.222;2023-07-31T03:58:06;19.50;98.70
44431;DHT22;30135;47.866;-4.222;2023-07-31T04:00:32;19.50;98.70
44431;DHT22;30135;47.866;-4.222;2023-07-31T04:03:01;19.50;98.80
44431;DHT22;30135;47.866;-4.222;2023-07-31T04:05:27;19.50;98.80
44431;DHT22;30135;47.866;-4.222;2023-07-31T04:07:55;19.50;98.90
44431;DHT22;30135;47.866;-4.222;2023-07-31T04:10:20;19.50;99.00
44431;DHT22;30135;47.866;-4.222;2023-07-31T04:12:49;19.50;99.10
44431;DHT22;30135;47.866;-4.222;2023-07-31T04:15:15;19.50;99.10
44431;DHT22;30135;47.866;-4.222;2023-07-31T04:17:42;19.50;99.20
44431;DHT22;30135;47.866;-4.222;2023-07-31T04:20:08;19.50;99.30
44431;DHT22;30135;47.866;-4.222;2023-07-31T04:22:34;19.50;99.30
44431;DHT22;30135;47.866;-4.222;2023-07-31T04:25:00;19.50;99.40
44431;DHT22;30135;47.866;-4.222;2023-07-31T04:27:26;19.50;99.40
44431;DHT22;30135;47.866;-4.222;2023-07-31T04:29:52;19.50;99.40
44431;DHT22;30135;47.866;-4.222;2023-07-31T04:32:21;19.50;99.50
44431;DHT22;30135;47.866;-4.222;2023-07-31T04:34:47;19.50;99.50
44431;DHT22;30135;47.866;-4.222;2023-07-31T04:37:13;19.50;99.60
44431;DHT22;30135;47.866;-4.222;2023-07-31T04:39:39;19.50;99.60
44431;DHT22;30135;47.866;-4.222;2023-07-31T04:42:05;19.50;99.70
44431;DHT22;30135;47.866;-4.222;2023-07-31T04:44:31;19.50;99.80
44431;DHT22;30135;47.866;-4.222;2023-07-31T04:46:57;19.50;99.80
44431;DHT22;30135;47.866;-4.222;2023-07-31T04:49:23;19.50;99.80
44431;DHT22;30135;47.866;-4.222;2023-07-31T04:51:49;19.50;99.90
44431;DHT22;30135;47.866;-4.222;2023-07-31T04:54:15;19.50;99.90
44431;DHT22;30135;47.866;-4.222;2023-07-31T04:56:41;19.50;99.90
44431;DHT22;30135;47.866;-4.222;2023-07-31T04:59:07;19.50;99.90
44431;DHT22;30135;47.866;-4.222;2023-07-31T05:01:33;19.50;99.90
44431;DHT22;30135;47.866;-4.222;2023-07-31T05:03:59;19.50;99.90
44431;DHT22;30135;47.866;-4.222;2023-07-31T05:06:25;19.50;99.90
44431;DHT22;30135;47.866;-4.222;2023-07-31T05:08:51;19.50;99.90
44431;DHT22;30135;47.866;-4.222;2023-07-31T05:11:17;19.50;99.90
44431;DHT22;30135;47.866;-4.222;2023-07-31T05:13:43;19.50;99.90
44431;DHT22;30135;47.866;-4.222;2023-07-31T05:16:09;19.50;99.90
44431;DHT22;30135;47.866;-4.222;2023-07-31T05:18:35;19.50;99.90
44431;DHT22;30135;47.866;-4.222;2023-07-31T05:21:01;19.50;99.90
44431;DHT22;30135;47.866;-4.222;2023-07-31T05:23:26;19.50;99.90
44431;DHT22;30135;47.866;-4.222;2023-07-31T05:25:53;19.50;99.90
44431;DHT22;30135;47.866;-4.222;2023-07-31T05:28:21;19.50;99.90
44431;DHT22;30135;47.866;-4.222;2023-07-31T05:30:47;19.50;99.90
44431;DHT22;30135;47.866;-4.222;2023-07-31T05:33:13;19.50;99.90
44431;DHT22;30135;47.866;-4.222;2023-07-31T05:35:39;19.50;99.90
44431;DHT22;30135;47.866;-4.222;2023-07-31T05:38:05;19.50;99.90
44431;DHT22;30135;47.866;-4.222;2023-07-31T05:40:33;19.50;99.90
44431;DHT22;30135;47.866;-4.222;2023-07-31T05:42:59;19.50;99.90
44431;DHT22;30135;47.866;-4.222;2023-07-31T05:45:25;19.60;99.90
44431;DHT22;30135;47.866;-4.222;2023-07-31T05:47:51;19.50;99.90
44431;DHT22;30135;47.866;-4.222;2023-07-31T05:50:19;19.60;99.90
44431;DHT22;30135;47.866;-4.222;2023-07-31T05:52:45;19.60;99.90
44431;DHT22;30135;47.866;-4.222;2023-07-31T05:55:14;19.60;99.90
44431;DHT22;30135;47.866;-4.222;2023-07-31T05:57:40;19.60;99.90
44431;DHT22;30135;47.866;-4.222;2023-07-31T06:00:13;19.60;99.90
44431;DHT22;30135;47.866;-4.222;2023-07-31T06:02:56;19.60;99.90
44431;DHT22;30135;47.866;-4.222;2023-07-31T06:05:22;19.60;99.90
44431;DHT22;30135;47.866;-4.222;2023-07-31T06:07:48;19.60;99.90
44431;DHT22;30135;47.866;-4.222;2023-07-31T06:10:14;19.60;99.90
44431;DHT22;30135;47.866;-4.222;2023-07-31T06:12:40;19.60;99.90
44431;DHT22;30135;47.866;-4.222;2023-07-31T06:15:06;19.60;99.90
44431;DHT22;30135;47.866;-4.222;2023-07-31T06:17:32;19.60;99.90
44431;DHT22;30135;47.866;-4.222;2023-07-31T06:19:58;19.60;99.90
44431;DHT22;30135;47.866;-4.222;2023-07-31T06:22:24;19.60;99.90
44431;DHT22;30135;47.866;-4.222;2023-07-31T06:24:50;19.60;99.90
44431;DHT22;30135;47.866;-4.222;2023-07-31T06:27:16;19.70;99.90
44431;DHT22;30135;47.866;-4.222;2023-07-31T06:29:42;19.70;99.90
44431;DHT22;30135;47.866;-4.222;2023-07-31T06:32:08;19.70;99.90
44431;DHT22;30135;47.866;-4.222;2023-07-31T06:34:34;19.70;99.90
44431;DHT22;30135;47.866;-4.222;2023-07-31T06:37:00;19.70;99.90
44431;DHT22;30135;47.866;-4.222;2023-07-31T06:39:26;19.70;99.90
44431;DHT22;30135;47.866;-4.222;2023-07-31T06:41:52;19.70;99.90
44431;DHT22;30135;47.866;-4.222;2023-07-31T06:44:18;19.70;99.90
44431;DHT22;30135;47.866;-4.222;2023-07-31T06:46:44;19.70;99.90
44431;DHT22;30135;47.866;-4.222;2023-07-31T06:49:10;19.70;99.90
44431;DHT22;30135;47.866;-4.222;2023-07-31T06:51:36;19.70;99.90
44431;DHT22;30135;47.866;-4.222;2023-07-31T06:54:04;19.70;99.90
44431;DHT22;30135;47.866;-4.222;2023-07-31T06:56:30;19.70;99.90
44431;DHT22;30135;47.866;-4.222;2023-07-31T06:58:56;19.70;99.90
44431;DHT22;30135;47.866;-4.222;2023-07-31T07:01:22;19.70;99.90
44431;DHT22;30135;47.866;-4.222;2023-07-31T07:03:48;19.80;99.90
44431;DHT22;30135;47.866;-4.222;2023-07-31T07:06:17;19.70;99.90
44431;DHT22;30135;47.866;-4.222;2023-07-31T07:08:43;19.80;99.90
44431;DHT22;30135;47.866;-4.222;2023-07-31T07:11:09;19.80;99.90
44431;DHT22;30135;47.866;-4.222;2023-07-31T07:13:35;19.80;99.90
44431;DHT22;30135;47.866;-4.222;2023-07-31T07:16:01;19.80;99.90
44431;DHT22;30135;47.866;-4.222;2023-07-31T07:18:27;19.80;99.90
44431;DHT22;30135;47.866;-4.222;2023-07-31T07:20:54;19.80;99.90
44431;DHT22;30135;47.866;-4.222;2023-07-31T07:23:20;19.80;99.90
44431;DHT22;30135;47.866;-4.222;2023-07-31T07:25:47;19.80;99.90
44431;DHT22;30135;47.866;-4.222;2023-07-31T07:28:13;19.80;99.90
44431;DHT22;30135;47.866;-4.222;2023-07-31T07:30:42;19.80;99.90
44431;DHT22;30135;47.866;-4.222;2023-07-31T07:33:08;19.80;99.90
44431;DHT22;30135;47.866;-4.222;2023-07-31T07:35:35;19.80;99.90
44431;DHT22;30135;47.866;-4.222;2023-07-31T07:38:04;19.80;99.90
44431;DHT22;30135;47.866;-4.222;2023-07-31T07:40:31;19.80;99.90
44431;DHT22;30135;47.866;-4.222;2023-07-31T07:42:56;19.80;99.90
44431;DHT22;30135;47.866;-4.222;2023-07-31T07:45:23;19.80;99.90
44431;DHT22;30135;47.866;-4.222;2023-07-31T07:47:49;19.80;99.90
44431;DHT22;30135;47.866;-4.222;2023-07-31T07:50:15;19.80;99.90
44431;DHT22;30135;47.866;-4.222;2023-07-31T07:52:41;19.80;99.90
44431;DHT22;30135;47.866;-4.222;2023-07-31T07:55:07;19.80;99.90
44431;DHT22;30135;47.866;-4.222;2023-07-31T07:57:34;19.80;99.90
44431;DHT22;30135;47.866;-4.222;2023-07-31T07:59:59;19.80;99.90
44431;DHT22;30135;47.866;-4.222;2023-07-31T08:02:26;19.80;99.90
44431;DHT22;30135;47.866;-4.222;2023-07-31T08:04:52;19.80;99.90
44431;DHT22;30135;47.866;-4.222;2023-07-31T08:07:18;19.80;99.90
44431;DHT22;30135;47.866;-4.222;2023-07-31T08:09:43;19.80;99.90
44431;DHT22;30135;47.866;-4.222;2023-07-31T08:12:09;19.80;99.90
44431;DHT22;30135;47.866;-4.222;2023-07-31T08:14:35;19.80;99.90
44431;DHT22;30135;47.866;-4.222;2023-07-31T08:17:02;19.80;99.90
44431;DHT22;30135;47.866;-4.222;2023-07-31T08:19:28;19.80;99.90
44431;DHT22;30135;47.866;-4.222;2023-07-31T08:21:54;19.80;99.90
44431;DHT22;30135;47.866;-4.222;2023-07-31T08:24:20;19.80;99.90
44431;DHT22;30135;47.866;-4.222;2023-07-31T08:26:47;19.80;99.90
44431;DHT22;30135;47.866;-4.222;2023-07-31T08:29:13;19.80;99.90
44431;DHT22;30135;47.866;-4.222;2023-07-31T08:31:39;19.80;99.90
44431;DHT22;30135;47.866;-4.222;2023-07-31T08:34:05;19.80;99.90
44431;DHT22;30135;47.866;-4.222;2023-07-31T08:36:31;19.80;99.90
44431;DHT22;30135;47.866;-4.222;2023-07-31T08:38:57;19.80;99.90
44431;DHT22;30135;47.866;-4.222;2023-07-31T08:41:23;19.80;99.90
44431;DHT22;30135;47.866;-4.222;2023-07-31T08:43:50;19.80;99.90
44431;DHT22;30135;47.866;-4.222;2023-07-31T08:46:17;19.80;99.90
44431;DHT22;30135;47.866;-4.222;2023-07-31T08:48:43;19.80;99.90
44431;DHT22;30135;47.866;-4.222;2023-07-31T08:51:09;19.80;99.90
44431;DHT22;30135;47.866;-4.222;2023-07-31T08:53:35;19.80;99.90
44431;DHT22;30135;47.866;-4.222;2023-07-31T08:56:02;19.70;99.90
44431;DHT22;30135;47.866;-4.222;2023-07-31T08:58:32;19.80;99.90
44431;DHT22;30135;47.866;-4.222;2023-07-31T09:01:06;19.80;99.90
44431;DHT22;30135;47.866;-4.222;2023-07-31T09:03:34;19.80;99.90
44431;DHT22;30135;47.866;-4.222;2023-07-31T09:06:02;19.80;99.90
44431;DHT22;30135;47.866;-4.222;2023-07-31T09:08:32;19.80;99.90
44431;DHT22;30135;47.866;-4.222;2023-07-31T09:11:02;19.80;99.90
44431;DHT22;30135;47.866;-4.222;2023-07-31T09:13:32;19.80;99.90
44431;DHT22;30135;47.866;-4.222;2023-07-31T09:15:58;19.80;99.90
44431;DHT22;30135;47.866;-4.222;2023-07-31T09:18:25;19.80;99.90
44431;DHT22;30135;47.866;-4.222;2023-07-31T09:21:04;19.80;99.90
44431;DHT22;30135;47.866;-4.222;2023-07-31T09:23:41;19.80;99.90
44431;DHT22;30135;47.866;-4.222;2023-07-31T09:26:09;19.80;99.90
44431;DHT22;30135;47.866;-4.222;2023-07-31T09:28:35;19.80;99.90
44431;DHT22;30135;47.866;-4.222;2023-07-31T09:31:02;19.80;99.90
44431;DHT22;30135;47.866;-4.222;2023-07-31T09:33:28;19.80;99.90
44431;DHT22;30135;47.866;-4.222;2023-07-31T09:35:54;19.80;99.90
44431;DHT22;30135;47.866;-4.222;2023-07-31T09:38:20;19.90;99.90
44431;DHT22;30135;47.866;-4.222;2023-07-31T09:40:47;19.80;99.90
44431;DHT22;30135;47.866;-4.222;2023-07-31T09:43:17;19.80;99.90
44431;DHT22;30135;47.866;-4.222;2023-07-31T09:45:45;19.80;99.90
44431;DHT22;30135;47.866;-4.222;2023-07-31T09:48:13;19.90;99.90
44431;DHT22;30135;47.866;-4.222;2023-07-31T09:50:47;19.90;99.90
44431;DHT22;30135;47.866;-4.222;2023-07-31T09:53:15;19.90;99.90
44431;DHT22;30135;47.866;-4.222;2023-07-31T09:55:42;19.90;99.90
44431;DHT22;30135;47.866;-4.222;2023-07-31T09:58:10;19.90;99.90
44431;DHT22;30135;47.866;-4.222;2023-07-31T10:00:37;19.90;99.90
44431;DHT22;30135;47.866;-4.222;2023-07-31T10:03:08;19.90;99.90
44431;DHT22;30135;47.866;-4.222;2023-07-31T10:05:47;19.90;99.90
44431;DHT22;30135;47.866;-4.222;2023-07-31T10:08:17;19.90;99.90
44431;DHT22;30135;47.866;-4.222;2023-07-31T10:10:45;19.90;99.90
44431;DHT22;30135;47.866;-4.222;2023-07-31T10:13:12;19.90;99.90
44431;DHT22;30135;47.866;-4.222;2023-07-31T10:15:39;19.90;99.90
44431;DHT22;30135;47.866;-4.222;2023-07-31T10:18:07;19.90;99.90
44431;DHT22;30135;47.866;-4.222;2023-07-31T10:20:34;19.90;99.90
44431;DHT22;30135;47.866;-4.222;2023-07-31T10:23:01;19.90;99.90
44431;DHT22;30135;47.866;-4.222;2023-07-31T10:25:27;19.90;99.90
44431;DHT22;30135;47.866;-4.222;2023-07-31T10:27:55;19.90;99.90
44431;DHT22;30135;47.866;-4.222;2023-07-31T10:30:27;20.00;99.90
44431;DHT22;30135;47.866;-4.222;2023-07-31T10:33:05;20.00;99.90
44431;DHT22;30135;47.866;-4.222;2023-07-31T10:35:31;20.00;99.90
44431;DHT22;30135;47.866;-4.222;2023-07-31T10:38:10;20.00;99.90
44431;DHT22;30135;47.866;-4.222;2023-07-31T10:40:40;20.00;99.90
44431;DHT22;30135;47.866;-4.222;2023-07-31T10:43:06;20.00;99.90
44431;DHT22;30135;47.866;-4.222;2023-07-31T10:45:39;20.00;99.90
44431;DHT22;30135;47.866;-4.222;2023-07-31T10:48:15;20.00;99.90
44431;DHT22;30135;47.866;-4.222;2023-07-31T10:50:50;20.00;99.90
44431;DHT22;30135;47.866;-4.222;2023-07-31T10:53:31;20.00;99.90
44431;DHT22;30135;47.866;-4.222;2023-07-31T10:56:02;20.00;99.90
44431;DHT22;30135;47.866;-4.222;2023-07-31T10:58:30;20.00;99.90
44431;DHT22;30135;47.866;-4.222;2023-07-31T11:01:00;20.00;99.90
44431;DHT22;30135;47.866;-4.222;2023-07-31T11:06:10;20.00;99.90
44431;DHT22;30135;47.866;-4.222;2023-07-31T11:08:43;20.00;99.90
44431;DHT22;30135;47.866;-4.222;2023-07-31T11:11:12;20.00;99.90
44431;DHT22;30135;47.866;-4.222;2023-07-31T11:13:46;20.00;99.90
44431;DHT22;30135;47.866;-4.222;2023-07-31T11:16:16;20.00;99.90
44431;DHT22;30135;47.866;-4.222;2023-07-31T11:18:44;20.00;99.90
44431;DHT22;30135;47.866;-4.222;2023-07-31T11:21:19;20.00;99.90
44431;DHT22;30135;47.866;-4.222;2023-07-31T11:23:55;20.00;99.90
44431;DHT22;30135;47.866;-4.222;2023-07-31T11:26:23;20.00;99.90
44431;DHT22;30135;47.866;-4.222;2023-07-31T11:28:50;20.00;99.90
44431;DHT22;30135;47.866;-4.222;2023-07-31T11:31:17;20.00;99.90
44431;DHT22;30135;47.866;-4.222;2023-07-31T11:33:44;20.00;99.90
44431;DHT22;30135;47.866;-4.222;2023-07-31T11:36:18;20.00;99.90
44431;DHT22;30135;47.866;-4.222;2023-07-31T11:38:45;20.00;99.90
44431;DHT22;30135;47.866;-4.222;2023-07-31T11:41:14;20.00;99.90
44431;DHT22;30135;47.866;-4.222;2023-07-31T11:43:45;19.90;99.90
44431;DHT22;30135;47.866;-4.222;2023-07-31T11:46:13;19.90;99.90
44431;DHT22;30135;47.866;-4.222;2023-07-31T11:48:40;20.00;99.90
44431;DHT22;30135;47.866;-4.222;2023-07-31T11:51:09;19.90;99.90
44431;DHT22;30135;47.866;-4.222;2023-07-31T11:56:23;19.90;99.90
44431;DHT22;30135;47.866;-4.222;2023-07-31T11:59:08;19.90;99.90
44431;DHT22;30135;47.866;-4.222;2023-07-31T12:01:34;19.90;99.90
44431;DHT22;30135;47.866;-4.222;2023-07-31T12:04:01;19.90;99.90
44431;DHT22;30135;47.866;-4.222;2023-07-31T12:06:35;19.90;99.90
44431;DHT22;30135;47.866;-4.222;2023-07-31T12:09:03;19.90;99.90
44431;DHT22;30135;47.866;-4.222;2023-07-31T12:11:30;19.90;99.90
44431;DHT22;30135;47.866;-4.222;2023-07-31T12:13:56;19.90;99.90
44431;DHT22;30135;47.866;-4.222;2023-07-31T12:16:26;19.90;99.90
44431;DHT22;30135;47.866;-4.222;2023-07-31T12:18:54;19.90;99.90
44431;DHT22;30135;47.866;-4.222;2023-07-31T12:21:20;19.90;99.90
44431;DHT22;30135;47.866;-4.222;2023-07-31T12:23:53;19.90;99.90
44431;DHT22;30135;47.866;-4.222;2023-07-31T12:26:19;19.90;99.90
44431;DHT22;30135;47.866;-4.222;2023-07-31T12:28:48;19.90;99.90
44431;DHT22;30135;47.866;-4.222;2023-07-31T12:31:20;20.00;99.90
44431;DHT22;30135;47.866;-4.222;2023-07-31T12:33:49;20.00;99.90
44431;DHT22;30135;47.866;-4.222;2023-07-31T12:36:18;20.00;99.90
44431;DHT22;30135;47.866;-4.222;2023-07-31T12:38:47;20.00;99.90
44431;DHT22;30135;47.866;-4.222;2023-07-31T12:41:13;20.00;99.90
44431;DHT22;30135;47.866;-4.222;2023-07-31T12:43:41;20.00;99.90
44431;DHT22;30135;47.866;-4.222;2023-07-31T12:46:07;20.00;99.90
44431;DHT22;30135;47.866;-4.222;2023-07-31T12:48:34;20.00;99.90
44431;DHT22;30135;47.866;-4.222;2023-07-31T12:51:00;20.00;99.90
44431;DHT22;30135;47.866;-4.222;2023-07-31T12:53:27;20.00;99.90
44431;DHT22;30135;47.866;-4.222;2023-07-31T12:55:53;20.00;99.90
44431;DHT22;30135;47.866;-4.222;2023-07-31T12:58:21;20.00;99.90
44431;DHT22;30135;47.866;-4.222;2023-07-31T13:00:47;20.10;99.90
44431;DHT22;30135;47.866;-4.222;2023-07-31T13:03:13;20.10;99.90
44431;DHT22;30135;47.866;-4.222;2023-07-31T13:05:39;20.10;99.90
44431;DHT22;30135;47.866;-4.222;2023-07-31T13:08:05;20.10;99.90
44431;DHT22;30135;47.866;-4.222;2023-07-31T13:10:31;20.10;99.90
44431;DHT22;30135;47.866;-4.222;2023-07-31T13:12:57;20.10;99.90
44431;DHT22;30135;47.866;-4.222;2023-07-31T13:15:23;20.10;99.90
44431;DHT22;30135;47.866;-4.222;2023-07-31T13:17:49;20.10;99.90
44431;DHT22;30135;47.866;-4.222;2023-07-31T13:20:16;20.10;99.90
44431;DHT22;30135;47.866;-4.222;2023-07-31T13:22:42;20.10;99.90
44431;DHT22;30135;47.866;-4.222;2023-07-31T13:25:08;20.10;99.90
44431;DHT22;30135;47.866;-4.222;2023-07-31T13:27:35;20.10;99.90
44431;DHT22;30135;47.866;-4.222;2023-07-31T13:30:01;20.20;99.90
44431;DHT22;30135;47.866;-4.222;2023-07-31T13:32:27;20.20;99.90
44431;DHT22;30135;47.866;-4.222;2023-07-31T13:34:53;20.20;99.90
44431;DHT22;30135;47.866;-4.222;2023-07-31T13:37:19;20.20;99.90
44431;DHT22;30135;47.866;-4.222;2023-07-31T13:39:45;20.20;99.90
44431;DHT22;30135;47.866;-4.222;2023-07-31T13:42:11;20.20;99.90
44431;DHT22;30135;47.866;-4.222;2023-07-31T13:44:44;20.20;99.90
44431;DHT22;30135;47.866;-4.222;2023-07-31T13:47:10;20.30;99.90
44431;DHT22;30135;47.866;-4.222;2023-07-31T13:49:36;20.30;99.90
44431;DHT22;30135;47.866;-4.222;2023-07-31T13:52:04;20.30;99.90
44431;DHT22;30135;47.866;-4.222;2023-07-31T13:54:31;20.20;99.90
44431;DHT22;30135;47.866;-4.222;2023-07-31T13:56:57;20.30;99.90
44431;DHT22;30135;47.866;-4.222;2023-07-31T13:59:23;20.30;99.90
44431;DHT22;30135;47.866;-4.222;2023-07-31T14:01:50;20.30;99.90
44431;DHT22;30135;47.866;-4.222;2023-07-31T14:04:16;20.30;99.90
44431;DHT22;30135;47.866;-4.222;2023-07-31T14:06:43;20.30;99.90
44431;DHT22;30135;47.866;-4.222;2023-07-31T14:09:09;20.30;99.90
44431;DHT22;30135;47.866;-4.222;2023-07-31T14:11:35;20.30;99.90
44431;DHT22;30135;47.866;-4.222;2023-07-31T14:14:02;20.40;99.90
44431;DHT22;30135;47.866;-4.222;2023-07-31T14:16:29;20.40;99.90
44431;DHT22;30135;47.866;-4.222;2023-07-31T14:18:54;20.40;99.90
44431;DHT22;30135;47.866;-4.222;2023-07-31T14:21:20;20.40;99.90
44431;DHT22;30135;47.866;-4.222;2023-07-31T14:23:46;20.40;99.90
44431;DHT22;30135;47.866;-4.222;2023-07-31T14:26:13;20.40;99.90
44431;DHT22;30135;47.866;-4.222;2023-07-31T14:28:39;20.40;99.90
44431;DHT22;30135;47.866;-4.222;2023-07-31T14:31:08;20.40;99.90
44431;DHT22;30135;47.866;-4.222;2023-07-31T14:33:34;20.40;99.90
44431;DHT22;30135;47.866;-4.222;2023-07-31T14:36:01;20.40;99.90
44431;DHT22;30135;47.866;-4.222;2023-07-31T14:38:27;20.40;99.90
44431;DHT22;30135;47.866;-4.222;2023-07-31T14:40:53;20.40;99.90
44431;DHT22;30135;47.866;-4.222;2023-07-31T14:43:19;20.40;99.90
44431;DHT22;30135;47.866;-4.222;2023-07-31T14:45:45;20.40;99.90
44431;DHT22;30135;47.866;-4.222;2023-07-31T14:48:12;20.40;99.90
44431;DHT22;30135;47.866;-4.222;2023-07-31T14:50:38;20.40;99.90
44431;DHT22;30135;47.866;-4.222;2023-07-31T14:53:08;20.40;99.90
44431;DHT22;30135;47.866;-4.222;2023-07-31T14:55:34;20.40;99.90
44431;DHT22;30135;47.866;-4.222;2023-07-31T14:58:00;20.40;99.90
44431;DHT22;30135;47.866;-4.222;2023-07-31T15:00:25;20.40;99.90
44431;DHT22;30135;47.866;-4.222;2023-07-31T15:02:52;20.40;99.90
44431;DHT22;30135;47.866;-4.222;2023-07-31T15:05:18;20.40;99.90
44431;DHT22;30135;47.866;-4.222;2023-07-31T15:07:44;20.40;99.90
44431;DHT22;30135;47.866;-4.222;2023-07-31T15:10:12;20.40;99.90
44431;DHT22;30135;47.866;-4.222;2023-07-31T15:12:40;20.40;99.90
44431;DHT22;30135;47.866;-4.222;2023-07-31T15:15:06;20.40;99.90
44431;DHT22;30135;47.866;-4.222;2023-07-31T15:17:32;20.40;99.90
44431;DHT22;30135;47.866;-4.222;2023-07-31T15:19:59;20.40;99.90
44431;DHT22;30135;47.866;-4.222;2023-07-31T15:22:26;20.40;99.90
44431;DHT22;30135;47.866;-4.222;2023-07-31T15:24:52;20.40;99.90